createdAt,value
2022-09-07T00:02:24.449Z,13.74
2022-09-07T00:05:26.726Z,13.70
2022-09-07T00:08:29.063Z,13.68
2022-09-07T00:11:31.058Z,13.68
2022-09-07T00:14:33.948Z,13.67
2022-09-07T00:17:36.292Z,13.62
2022-09-07T00:20:38.132Z,13.57
2022-09-07T00:23:40.776Z,13.55
2022-09-07T00:26:42.618Z,13.52
2022-09-07T00:29:44.719Z,13.51
2022-09-07T00:32:46.612Z,13.50
2022-09-07T00:35:48.559Z,13.46
2022-09-07T00:38:50.757Z,13.43
2022-09-07T00:41:52.804Z,13.36
2022-09-07T00:45:03.580Z,13.30
2022-09-07T00:48:13.667Z,13.27
2022-09-07T00:51:24.754Z,13.21
2022-09-07T00:54:34.318Z,13.17
2022-09-07T00:57:37.776Z,13.15
2022-09-07T01:00:46.342Z,13.10
2022-09-07T01:03:51.668Z,13.08
2022-09-07T01:06:55.172Z,13.01
2022-09-07T01:09:57.469Z,12.96
2022-09-07T01:13:00.361Z,12.93
2022-09-07T01:16:39.094Z,12.91
2022-09-07T01:20:18.595Z,12.88
2022-09-07T01:23:52.766Z,12.83
2022-09-07T01:27:06.618Z,12.80
2022-09-07T01:30:19.764Z,12.71
2022-09-07T01:33:36.830Z,12.68
2022-09-07T01:37:03.255Z,12.64
2022-09-07T01:40:23.002Z,12.48
2022-09-07T01:43:52.692Z,12.45
2022-09-07T01:47:18.804Z,12.44
2022-09-07T01:50:42.828Z,12.45
2022-09-07T01:53:51.752Z,12.41
2022-09-07T01:56:58.534Z,12.32
2022-09-07T02:00:13.179Z,12.33
2022-09-07T02:03:25.641Z,12.25
2022-09-07T02:06:51.869Z,12.19
2022-09-07T02:10:17.539Z,12.17
2022-09-07T02:13:46.333Z,12.09
2022-09-07T02:16:56.409Z,12.05
2022-09-07T02:20:22.200Z,12.07
2022-09-07T02:23:44.607Z,12.07
2022-09-07T02:26:49.726Z,12.04
2022-09-07T02:29:52.184Z,12.01
2022-09-07T02:32:56.199Z,12.02
2022-09-07T02:35:58.542Z,12.01
2022-09-07T02:39:00.337Z,12.01
2022-09-07T02:42:02.407Z,12.03
2022-09-07T02:45:07.988Z,12.01
2022-09-07T02:48:41.631Z,12.01
2022-09-07T02:52:20.013Z,12.01
2022-09-07T02:56:00.372Z,12.00
2022-09-07T02:59:23.909Z,11.98
2022-09-07T03:02:39.901Z,11.94
2022-09-07T03:05:48.990Z,11.88
2022-09-07T03:08:55.421Z,11.69
2022-09-07T03:11:57.728Z,11.76
2022-09-07T03:14:59.527Z,11.71
2022-09-07T03:18:01.334Z,11.73
2022-09-07T03:21:03.211Z,11.70
2022-09-07T03:24:05.724Z,11.60
2022-09-07T03:27:07.595Z,11.57
2022-09-07T03:30:11.165Z,11.58
2022-09-07T03:33:15.897Z,11.58
2022-09-07T03:36:17.838Z,11.58
2022-09-07T03:39:22.677Z,11.56
2022-09-07T03:42:24.603Z,11.54
2022-09-07T03:45:26.459Z,11.49
2022-09-07T03:48:33.262Z,11.49
2022-09-07T03:51:35.110Z,11.50
2022-09-07T03:54:39.617Z,11.49
2022-09-07T03:57:42.889Z,11.49
2022-09-07T04:00:44.619Z,11.46
2022-09-07T04:03:46.670Z,11.49
2022-09-07T04:06:48.628Z,11.50
2022-09-07T04:09:51.466Z,11.48
2022-09-07T04:12:53.285Z,11.46
2022-09-07T04:15:55.691Z,11.49
2022-09-07T04:18:59.276Z,11.53
2022-09-07T04:22:01.285Z,11.54
2022-09-07T04:25:03.244Z,11.55
2022-09-07T04:28:05.223Z,11.60
2022-09-07T04:31:07.038Z,11.65
2022-09-07T04:34:10.307Z,11.68
2022-09-07T04:37:12.601Z,11.73
2022-09-07T04:40:14.456Z,11.77
2022-09-07T04:43:16.294Z,11.84
2022-09-07T04:46:21.900Z,11.94
2022-09-07T04:49:23.841Z,12.00
2022-09-07T04:52:25.652Z,12.11
2022-09-07T04:55:27.586Z,12.18
2022-09-07T04:58:30.280Z,12.26
2022-09-07T05:01:32.404Z,12.32
2022-09-07T05:04:37.427Z,12.42
2022-09-07T05:07:39.268Z,12.56
2022-09-07T05:10:51.241Z,12.71
2022-09-07T05:13:55.336Z,12.85
2022-09-07T05:16:57.375Z,12.99
2022-09-07T05:19:59.387Z,13.12
2022-09-07T05:23:01.176Z,13.30
2022-09-07T05:26:04.071Z,13.40
2022-09-07T05:32:29.399Z,13.65
2022-09-07T05:35:31.762Z,13.62
2022-09-07T05:38:37.035Z,13.74
2022-09-07T05:41:39.027Z,13.82
2022-09-07T05:47:49.303Z,13.94
2022-09-07T05:50:52.747Z,13.84
2022-09-07T05:53:56.364Z,13.78
2022-09-07T05:56:58.451Z,13.85
2022-09-07T06:00:00.248Z,13.77
2022-09-07T06:03:02.209Z,13.77
2022-09-07T06:06:08.941Z,13.98
2022-09-07T06:09:12.697Z,14.09
2022-09-07T06:12:14.428Z,14.18
2022-09-07T06:15:16.375Z,14.28
2022-09-07T06:18:18.852Z,14.21
2022-09-07T06:21:23.085Z,14.42
2022-09-07T06:24:24.869Z,14.59
2022-09-07T06:27:26.826Z,14.81
2022-09-07T06:30:29.552Z,14.85
2022-09-07T06:33:31.367Z,14.87
2022-09-07T06:36:33.964Z,14.92
2022-09-07T06:39:36.493Z,14.88
2022-09-07T06:42:39.215Z,15.19
2022-09-07T06:45:41.110Z,15.42
2022-09-07T06:48:44.476Z,15.20
2022-09-07T06:51:46.631Z,15.48
2022-09-07T06:55:03.894Z,15.51
2022-09-07T06:58:05.813Z,15.55
2022-09-07T07:01:16.327Z,15.38
2022-09-07T07:04:18.332Z,15.58
2022-09-07T07:07:20.184Z,15.72
2022-09-07T07:10:24.808Z,15.56
2022-09-07T07:13:27.476Z,15.99
2022-09-07T07:16:29.608Z,16.06
2022-09-07T07:19:31.513Z,16.26
2022-09-07T07:22:48.684Z,16.04
2022-09-07T07:25:50.572Z,16.15
2022-09-07T07:29:03.557Z,16.62
2022-09-07T07:32:06.244Z,16.43
2022-09-07T07:35:08.968Z,16.95
2022-09-07T07:48:17.306Z,17.49
2022-09-07T07:51:20.092Z,17.62
2022-09-07T07:54:22.141Z,17.90
2022-09-07T07:57:24.136Z,17.70
2022-09-07T08:00:37.748Z,17.69
2022-09-07T08:03:47.949Z,17.99
2022-09-07T08:06:49.752Z,18.03
2022-09-07T08:09:51.828Z,17.77
2022-09-07T08:12:53.623Z,17.84
2022-09-07T08:15:59.441Z,18.32
2022-09-07T08:22:04.025Z,18.09
2022-09-07T08:25:09.056Z,18.81
2022-09-07T08:28:10.822Z,19.00
2022-09-07T08:31:15.013Z,19.09
2022-09-07T08:34:17.052Z,19.39
2022-09-07T08:37:18.848Z,19.36
2022-09-07T08:40:20.865Z,19.14
2022-09-07T08:44:00.367Z,19.38
2022-09-07T08:47:12.638Z,19.19
2022-09-07T08:50:15.116Z,19.19
2022-09-07T08:53:19.858Z,19.12
2022-09-07T08:56:33.659Z,19.50
2022-09-07T08:59:41.604Z,19.85
2022-09-07T09:02:45.038Z,20.34
2022-09-07T09:06:01.191Z,20.27
2022-09-07T09:09:30.824Z,20.47
2022-09-07T09:12:41.284Z,20.58
2022-09-07T09:15:53.242Z,20.48
2022-09-07T09:19:15.589Z,20.57
2022-09-07T09:22:28.348Z,20.74
2022-09-07T09:25:33.894Z,20.77
2022-09-07T09:28:35.922Z,21.00
2022-09-07T09:31:37.935Z,20.74
2022-09-07T09:34:39.893Z,21.08
2022-09-07T09:37:43.061Z,21.35
2022-09-07T09:40:52.793Z,21.85
2022-09-07T09:43:56.255Z,21.42
2022-09-07T09:54:18.563Z,21.84
2022-09-07T09:59:04.733Z,22.16
2022-09-07T10:01:26.385Z,21.92
2022-09-07T10:04:35.179Z,22.28
2022-09-07T10:07:37.037Z,22.63
2022-09-07T10:10:54.149Z,22.45
2022-09-07T10:13:57.892Z,22.67
2022-09-07T10:17:02.121Z,22.82
2022-09-07T10:20:13.073Z,23.08
2022-09-07T10:23:23.858Z,23.24
2022-09-07T10:26:34.993Z,23.44
2022-09-07T10:29:37.288Z,23.15
2022-09-07T10:32:51.020Z,23.44
2022-09-07T10:36:08.037Z,23.05
2022-09-07T10:39:17.586Z,23.16
2022-09-07T10:42:29.074Z,23.44
2022-09-07T10:45:59.259Z,23.62
2022-09-07T10:49:27.426Z,23.81
2022-09-07T10:52:48.833Z,23.77
2022-09-07T10:56:31.027Z,23.85
2022-09-07T11:03:26.950Z,24.33
2022-09-07T11:06:55.199Z,24.60
2022-09-07T11:10:13.149Z,24.38
2022-09-07T11:13:22.224Z,24.53
2022-09-07T11:20:22.092Z,24.99
2022-09-07T11:23:29.684Z,25.25
2022-09-07T11:26:56.223Z,25.06
2022-09-07T11:30:23.666Z,25.42
2022-09-07T11:37:21.113Z,25.37
2022-09-07T11:40:29.912Z,25.26
2022-09-07T11:43:38.211Z,25.35
2022-09-07T11:46:55.842Z,25.23
2022-09-07T11:49:59.529Z,25.00
2022-09-07T11:53:09.543Z,25.20
2022-09-07T11:56:16.907Z,25.46
2022-09-07T11:59:37.127Z,25.66
2022-09-07T12:02:59.918Z,24.91
2022-09-07T12:06:08.244Z,25.34
2022-09-07T12:09:46.604Z,25.34
2022-09-07T12:12:58.977Z,25.58
2022-09-07T12:16:23.233Z,25.98
2022-09-07T12:19:27.057Z,25.97
2022-09-07T12:22:28.831Z,26.00
2022-09-07T12:25:32.261Z,26.03
2022-09-07T12:28:34.195Z,26.15
2022-09-07T12:31:57.535Z,26.06
2022-09-07T12:35:00.972Z,26.49
2022-09-07T12:38:13.854Z,26.33
2022-09-07T12:41:40.709Z,26.33
2022-09-07T12:44:42.541Z,25.78
2022-09-07T12:47:56.075Z,25.64
2022-09-07T12:55:26.484Z,26.02
2022-09-07T12:58:30.809Z,25.84
2022-09-07T13:01:51.806Z,26.12
2022-09-07T13:05:06.362Z,26.47
2022-09-07T13:08:09.372Z,26.72
2022-09-07T13:11:31.712Z,26.91
2022-09-07T13:14:38.522Z,26.44
2022-09-07T13:17:43.391Z,25.98
2022-09-07T13:20:46.675Z,25.55
2022-09-07T13:27:44.159Z,25.19
2022-09-07T13:31:30.050Z,25.25
2022-09-07T13:34:34.808Z,25.12
2022-09-07T13:37:59.083Z,24.95
2022-09-07T13:41:13.412Z,25.10
2022-09-07T13:44:25.954Z,24.93
2022-09-07T13:47:37.907Z,25.04
2022-09-07T13:51:10.433Z,24.92
2022-09-07T13:54:45.680Z,25.10
2022-09-07T13:58:04.687Z,25.26
2022-09-07T14:01:19.011Z,25.39
2022-09-07T14:04:28.863Z,25.35
2022-09-07T14:07:31.724Z,25.32
2022-09-07T14:10:33.745Z,25.22
2022-09-07T14:13:35.497Z,25.23
2022-09-07T14:16:38.088Z,25.32
2022-09-07T14:19:45.100Z,25.36
2022-09-07T14:22:51.983Z,25.73
2022-09-07T14:26:17.461Z,25.77
2022-09-07T14:29:24.531Z,25.80
2022-09-07T14:32:27.315Z,25.80
2022-09-07T14:35:33.691Z,25.63
2022-09-07T14:42:03.870Z,25.44
2022-09-07T14:45:31.460Z,25.55
2022-09-07T14:48:35.370Z,24.80
2022-09-07T14:51:42.805Z,25.00
2022-09-07T14:54:51.872Z,24.52
2022-09-07T14:58:15.034Z,24.22
2022-09-07T15:04:42.800Z,24.35
2022-09-07T15:07:50.363Z,24.10
2022-09-07T15:11:35.148Z,23.61
2022-09-07T15:14:39.954Z,23.60
2022-09-07T15:17:43.264Z,23.74
2022-09-07T15:20:45.657Z,23.71
2022-09-07T15:23:55.512Z,23.59
2022-09-07T15:27:04.518Z,23.51
2022-09-07T15:30:06.854Z,23.44
2022-09-07T15:33:09.033Z,23.39
2022-09-07T15:36:13.278Z,23.18
2022-09-07T15:39:17.161Z,23.05
2022-09-07T15:45:41.390Z,23.00
2022-09-07T15:48:54.775Z,23.00
2022-09-07T15:52:05.054Z,22.94
2022-09-07T15:55:08.764Z,22.86
2022-09-07T15:58:13.714Z,22.89
2022-09-07T16:04:38.778Z,22.66
2022-09-07T16:11:35.302Z,22.77
2022-09-07T16:14:37.202Z,22.71
2022-09-07T16:17:47.201Z,22.46
2022-09-07T16:20:52.721Z,22.17
2022-09-07T16:23:55.077Z,21.96
2022-09-07T16:26:56.924Z,21.78
2022-09-07T16:29:59.533Z,21.82
2022-09-07T16:33:01.432Z,21.63
2022-09-07T16:36:15.988Z,21.69
2022-09-07T16:39:18.257Z,21.57
2022-09-07T16:42:21.690Z,21.51
2022-09-07T16:48:52.325Z,21.42
2022-09-07T16:51:54.460Z,21.44
2022-09-07T16:54:56.223Z,21.42
2022-09-07T17:01:22.486Z,20.97
2022-09-07T17:04:24.522Z,20.93
2022-09-07T17:07:26.250Z,20.88
2022-09-07T17:10:28.773Z,20.69
2022-09-07T17:13:32.171Z,20.58
2022-09-07T17:16:37.543Z,20.55
2022-09-07T17:19:39.520Z,20.41
2022-09-07T17:22:41.460Z,20.39
2022-09-07T17:25:43.187Z,20.26
2022-09-07T17:28:48.815Z,20.27
2022-09-07T17:35:12.049Z,20.04
2022-09-07T17:41:35.703Z,19.92
2022-09-07T17:44:38.475Z,19.82
2022-09-07T17:47:40.342Z,19.77
2022-09-07T17:50:42.578Z,19.70
2022-09-07T17:53:45.654Z,19.63
2022-09-07T17:56:47.705Z,19.57
2022-09-07T18:03:12.863Z,19.42
2022-09-07T18:06:15.069Z,19.38
2022-09-07T18:09:17.404Z,19.31
2022-09-07T18:12:19.124Z,19.28
2022-09-07T18:15:22.214Z,19.22
2022-09-07T18:18:24.022Z,19.15
2022-09-07T18:21:28.354Z,19.09
2022-09-07T18:24:30.299Z,19.05
2022-09-07T18:27:32.101Z,18.97
2022-09-07T18:30:42.243Z,18.93
2022-09-07T18:33:43.946Z,18.86
2022-09-07T18:36:45.734Z,18.80
2022-09-07T18:39:48.807Z,18.73
2022-09-07T18:42:52.299Z,18.63
2022-09-07T18:46:01.247Z,18.53
2022-09-07T18:49:03.078Z,18.49
2022-09-07T18:55:27.502Z,18.37
2022-09-07T18:58:29.733Z,18.34
2022-09-07T19:01:32.137Z,18.27
2022-09-07T19:07:55.944Z,18.24
2022-09-07T19:11:04.703Z,18.29
2022-09-07T19:14:06.681Z,18.28
2022-09-07T19:17:08.499Z,18.25
2022-09-07T19:20:10.573Z,18.18
2022-09-07T19:23:12.284Z,18.17
2022-09-07T19:26:14.077Z,18.12
2022-09-07T19:29:18.048Z,18.01
2022-09-07T19:32:20.392Z,17.98
2022-09-07T19:35:22.179Z,17.98
2022-09-07T19:38:24.045Z,17.94
2022-09-07T19:41:25.960Z,17.87
2022-09-07T19:44:27.992Z,17.80
2022-09-07T19:47:29.747Z,17.70
2022-09-07T19:50:32.407Z,17.67
2022-09-07T19:53:35.845Z,17.61
2022-09-07T19:56:39.088Z,17.53
2022-09-07T19:59:40.849Z,17.46
2022-09-07T20:02:42.641Z,17.41
2022-09-07T20:05:44.412Z,17.34
2022-09-07T20:08:46.827Z,17.28
2022-09-07T20:11:48.657Z,17.24
2022-09-07T20:14:50.481Z,17.18
2022-09-07T20:17:54.055Z,17.13
2022-09-07T20:20:57.269Z,17.06
2022-09-07T20:23:59.153Z,17.01
2022-09-07T20:27:02.788Z,16.92
2022-09-07T20:30:05.328Z,16.86
2022-09-07T20:33:07.232Z,16.84
2022-09-07T20:36:11.338Z,16.77
2022-09-07T20:39:16.570Z,16.73
2022-09-07T20:42:19.006Z,16.66
2022-09-07T20:45:20.986Z,16.60
2022-09-07T20:48:22.839Z,16.56
2022-09-07T20:51:24.945Z,16.49
2022-09-07T20:54:26.737Z,16.46
2022-09-07T20:57:28.731Z,16.46
2022-09-07T21:00:31.044Z,16.43
2022-09-07T21:03:32.920Z,16.45
2022-09-07T21:06:34.926Z,16.36
2022-09-07T21:09:36.635Z,16.19
2022-09-07T21:12:38.295Z,16.12
2022-09-07T21:15:44.403Z,16.01
2022-09-07T21:18:46.223Z,16.00
2022-09-07T21:21:47.994Z,15.96
2022-09-07T21:24:49.659Z,15.88
2022-09-07T21:27:51.663Z,15.83
2022-09-07T21:31:01.310Z,15.85
2022-09-07T21:34:03.148Z,15.84
2022-09-07T21:37:04.867Z,15.83
2022-09-07T21:40:07.498Z,15.84
2022-09-07T21:43:09.287Z,15.78
2022-09-07T21:46:17.290Z,15.75
2022-09-07T21:49:19.034Z,15.73
2022-09-07T21:52:20.737Z,15.68
2022-09-07T21:55:22.474Z,15.60
2022-09-07T21:58:25.127Z,15.54
2022-09-07T22:01:28.971Z,15.45
2022-09-07T22:04:31.176Z,15.35
2022-09-07T22:07:33.117Z,15.30
2022-09-07T22:10:35.130Z,15.27
2022-09-07T22:13:37.775Z,15.25
2022-09-07T22:16:39.824Z,15.18
2022-09-07T22:19:41.625Z,15.14
2022-09-07T22:22:43.714Z,15.06
2022-09-07T22:25:53.233Z,14.97
2022-09-07T22:28:55.723Z,14.87
2022-09-07T22:31:57.521Z,14.73
2022-09-07T22:34:59.744Z,14.72
2022-09-07T22:38:01.462Z,14.71
2022-09-07T22:41:11.598Z,14.67
2022-09-07T22:44:16.075Z,14.63
2022-09-07T22:47:17.799Z,14.60
2022-09-07T22:50:20.377Z,14.56
2022-09-07T22:53:22.836Z,14.40
2022-09-07T22:56:31.327Z,14.40
2022-09-07T22:59:33.338Z,14.21
2022-09-07T23:02:35.166Z,14.20
2022-09-07T23:05:37.812Z,14.15
2022-09-07T23:08:39.927Z,14.12
2022-09-07T23:11:42.312Z,14.10
2022-09-07T23:14:43.991Z,14.03
2022-09-07T23:17:45.798Z,14.00
2022-09-07T23:20:47.663Z,14.03
2022-09-07T23:23:54.648Z,14.03
2022-09-07T23:26:56.429Z,13.99
2022-09-07T23:29:58.189Z,13.93
2022-09-07T23:33:00.143Z,13.90
2022-09-07T23:36:04.446Z,13.87
2022-09-07T23:39:09.135Z,13.89
2022-09-07T23:42:11.071Z,13.86
2022-09-07T23:45:13.473Z,13.82
2022-09-07T23:48:15.496Z,13.68
2022-09-07T23:51:23.050Z,13.47
2022-09-07T23:54:26.249Z,13.59
2022-09-07T23:57:28.111Z,13.58
